Norman Wells Airport
CYVQ : now visible

Airfield :











YOU CAN JOIN US ON...

 
LOGIN :

Register | Disclaimer

   EN    FR    IT 

 









Legend :    VFR   Marginal VFR   IFR   Intensive IFR   Very Intensive IFR
Visi :
Ceiling :
>= 8 km
>= 3000ft
5 to 8 km
1000 to 3000 ft
1500m to 5 km
500 to 1000 ft
800 to 1500m
200 to 500 ft
< 800m
< 200 ft
Symbols :   Thunderstorms  Fog  Heavy snow  Heavy precipitations  Wind > 20 kt






- Airport Elevation : 238 ft
- IATA code : YVQ


CYVQ - Norman Wells

CURRENT METAR :
  • 070400Z 10010G17KT 060V120 30SM FEW068TCU FEW084 SCT110 BKN230 18/07 A2991 RMK TCU1AC1AC1CI2 SLP133 DENSITY ALT 700FT

EXPIRED METARs :
  • 070324Z 11010G15KT 30SM FEW068TCU SCT084 BKN120 BKN230 18/06 A2991 RMK TCU2AC2AC1CI1 CI TR PCPN DIST N WSHFT 0309 SLP132 DENSITY ALT 700FT
  • 070300Z 03003KT 340V090 30SM SCT068TCU SCT086 BKN110 BKN230 17/08 A2991 RMK TCU3AC1AC1CI1 CI TR PCPN DIST NW SLP134 DENSITY ALT 500FT
  • 070200Z 14011KT 30SM VCSH BKN064TCU BKN084 BKN130 17/07 A2993 RMK TCU5AC1AC1 SLP138 DENSITY ALT 600FT
  • 070100Z 11009G16KT 30SM VCSH BKN060CB BKN130 BKN170 19/06 A2992 RMK CB5AC1AC1 SLP135 DENSITY ALT 800FT

TAF TAF CYVQ
Valid from the 07 at 00:00 until the 07 at 12:00 UTC


062338Z 0700/0712 12010KT P6SM SCT040 SCT200 RMK NXT FCST BY 070600Z
CZEG FIR / North America



MET'MAP, your aeronautical weather chart ! - Copyright ORBIFLY December 2007 - Disclaimer

ORBIFLY MET'MAP TEAM :

Programming & Development : Alexandra Zaïnal
Concept & original design : Baudouin d'Aumeries
Assistance for programming : Marc-Olivier Méhu
Technical & hardware support : Manuel Goepfert

Contact : metmap@orbifly.com




SOURCES & CREDITS :

   NOAA       Earth
Advisory